Jenpeg Airport


Codes: CZJG/ZJG
Name: Jenpeg Airport
City: Jenpeg
Country: Canada
Elevation: 729 ft.
Wikipedia:

Photos at Jenpeg Airport


   Photos courtesy of SpottingLog. You can add your own sightings and photos by signing up for a free trial today.



No photos found.

Weather at Jenpeg Airport


Time (UTC)DescriptionTempratureWindCloud coverageVisibilityPressureHumidity
25-Jun-2024 15:00Overcast Clouds7°C13 mph, NE100%10000m1007hPa91%
25-Jun-2024 18:00Overcast Clouds10°C9 mph, NE100%10000m1010hPa74%
25-Jun-2024 21:00Overcast Clouds14°C7 mph, N99%10000m1012hPa50%
26-Jun-2024 00:00Broken Clouds16°C7 mph, W84%10000m1012hPa44%
26-Jun-2024 03:00Overcast Clouds13°C11 mph, NW94%10000m1014hPa52%
26-Jun-2024 06:00Overcast Clouds10°C7 mph, NW97%10000m1015hPa65%
26-Jun-2024 09:00Broken Clouds8°C7 mph, NW81%10000m1017hPa73%
26-Jun-2024 12:00Scattered Clouds9°C7 mph, NW43%10000m1017hPa68%
26-Jun-2024 15:00Broken Clouds14°C7 mph, W61%10000m1016hPa46%
26-Jun-2024 18:00Broken Clouds16°C9 mph, W70%10000m1014hPa44%
26-Jun-2024 21:00Overcast Clouds18°C4 mph, NW92%10000m1013hPa35%
27-Jun-2024 00:00Overcast Clouds18°C4 mph, NE95%10000m1012hPa40%
27-Jun-2024 03:00Scattered Clouds14°C4 mph, SE40%10000m1011hPa53%
27-Jun-2024 06:00Broken Clouds11°C7 mph, SW51%10000m1011hPa69%
27-Jun-2024 09:00Broken Clouds11°C4 mph, W78%10000m1010hPa71%
27-Jun-2024 12:00Broken Clouds13°C2 mph, W70%10000m1010hPa67%
27-Jun-2024 15:00Broken Clouds18°C2 mph, W52%10000m1008hPa46%
27-Jun-2024 18:00Broken Clouds21°C4 mph, SW73%10000m1006hPa33%
27-Jun-2024 21:00Overcast Clouds17°C9 mph, N95%10000m1007hPa49%
28-Jun-2024 00:00Light Rain12°C13 mph, NE90%10000m1008hPa88%
28-Jun-2024 03:00Overcast Clouds11°C7 mph, NE97%10000m1011hPa82%
28-Jun-2024 06:00Broken Clouds9°C9 mph, E63%10000m1012hPa77%
28-Jun-2024 09:00Scattered Clouds6°C9 mph, NE27%10000m1013hPa78%
28-Jun-2024 12:00Few Clouds7°C11 mph, NE16%10000m1014hPa64%
28-Jun-2024 15:00Scattered Clouds11°C13 mph, NE32%10000m1014hPa45%
28-Jun-2024 18:00Broken Clouds15°C11 mph, NE53%10000m1013hPa35%
28-Jun-2024 21:00Broken Clouds17°C9 mph, NE81%10000m1013hPa30%
29-Jun-2024 00:00Overcast Clouds17°C7 mph, NE91%10000m1013hPa31%
29-Jun-2024 03:00Scattered Clouds12°C4 mph, SE46%10000m1014hPa47%
29-Jun-2024 06:00Scattered Clouds9°C4 mph, S27%10000m1016hPa53%
29-Jun-2024 09:00Scattered Clouds8°C4 mph, SW35%10000m1016hPa60%
29-Jun-2024 12:00Broken Clouds10°C4 mph, W53%10000m1017hPa54%
29-Jun-2024 15:00Scattered Clouds18°C4 mph, NW43%10000m1017hPa37%
29-Jun-2024 18:00Scattered Clouds20°C4 mph, NW50%10000m1016hPa31%
29-Jun-2024 21:00Overcast Clouds21°C7 mph, NW100%10000m1016hPa31%
30-Jun-2024 00:00Overcast Clouds21°C4 mph, W94%10000m1016hPa35%
30-Jun-2024 03:00Scattered Clouds16°C7 mph, S36%10000m1017hPa51%
30-Jun-2024 06:00Scattered Clouds13°C9 mph, SW27%10000m1018hPa59%
30-Jun-2024 09:00Few Clouds12°C7 mph, SW12%10000m1019hPa68%
30-Jun-2024 12:00Few Clouds14°C7 mph, SW11%10000m1019hPa68%